sensor_id;sensor_type;location;lat;lon;timestamp;pressure;altitude;pressure_sealevel;temperature;humidity
33151;BME280;19508;42.578;23.416;2023-04-10T00:02:07;93806.91;;;6.42;72.09
33151;BME280;19508;42.578;23.416;2023-04-10T00:04:32;93808.75;;;6.41;72.23
33151;BME280;19508;42.578;23.416;2023-04-10T00:06:57;93792.97;;;6.52;71.90
33151;BME280;19508;42.578;23.416;2023-04-10T00:09:23;93794.59;;;6.64;71.67
33151;BME280;19508;42.578;23.416;2023-04-10T00:11:48;93799.28;;;6.69;71.22
33151;BME280;19508;42.578;23.416;2023-04-10T00:14:14;93794.84;;;6.63;70.77
33151;BME280;19508;42.578;23.416;2023-04-10T00:16:39;93786.72;;;6.69;69.72
33151;BME280;19508;42.578;23.416;2023-04-10T00:19:05;93780.09;;;6.72;69.32
33151;BME280;19508;42.578;23.416;2023-04-10T00:21:32;93782.75;;;6.72;69.60
33151;BME280;19508;42.578;23.416;2023-04-10T00:23:57;93786.28;;;6.84;69.30
33151;BME280;19508;42.578;23.416;2023-04-10T00:26:22;93786.84;;;6.98;68.57
33151;BME280;19508;42.578;23.416;2023-04-10T00:28:48;93778.97;;;7.03;67.95
33151;BME280;19508;42.578;23.416;2023-04-10T00:31:13;93774.66;;;7.14;67.64
33151;BME280;19508;42.578;23.416;2023-04-10T00:33:39;93773.72;;;7.20;67.29
33151;BME280;19508;42.578;23.416;2023-04-10T00:36:04;93774.53;;;7.20;66.53
33151;BME280;19508;42.578;23.416;2023-04-10T00:38:30;93774.50;;;7.32;65.64
33151;BME280;19508;42.578;23.416;2023-04-10T00:40:55;93771.84;;;7.44;65.64
33151;BME280;19508;42.578;23.416;2023-04-10T00:43:21;93771.47;;;7.40;65.18
33151;BME280;19508;42.578;23.416;2023-04-10T00:45:46;93770.09;;;7.38;64.15
33151;BME280;19508;42.578;23.416;2023-04-10T00:48:13;93762.59;;;7.51;63.18
33151;BME280;19508;42.578;23.416;2023-04-10T00:50:39;93758.31;;;7.50;61.76
33151;BME280;19508;42.578;23.416;2023-04-10T00:53:04;93765.53;;;7.61;62.02
33151;BME280;19508;42.578;23.416;2023-04-10T00:55:30;93768.28;;;7.67;61.12
33151;BME280;19508;42.578;23.416;2023-04-10T00:57:55;93752.31;;;7.72;60.99
33151;BME280;19508;42.578;23.416;2023-04-10T01:00:21;93756.63;;;7.73;60.97
33151;BME280;19508;42.578;23.416;2023-04-10T01:02:47;93762.81;;;7.73;61.22
33151;BME280;19508;42.578;23.416;2023-04-10T01:05:12;93751.47;;;7.83;61.33
33151;BME280;19508;42.578;23.416;2023-04-10T01:10:37;93744.53;;;7.99;61.37
33151;BME280;19508;42.578;23.416;2023-04-10T01:13:22;93738.94;;;8.00;61.00
33151;BME280;19508;42.578;23.416;2023-04-10T01:15:58;93744.97;;;7.79;62.44
33151;BME280;19508;42.578;23.416;2023-04-10T01:18:32;93741.91;;;7.87;62.36
33151;BME280;19508;42.578;23.416;2023-04-10T01:21:01;93748.03;;;7.99;61.90
33151;BME280;19508;42.578;23.416;2023-04-10T01:26:55;93755.38;;;7.52;66.71
33151;BME280;19508;42.578;23.416;2023-04-10T01:29:24;93747.91;;;7.66;65.69
33151;BME280;19508;42.578;23.416;2023-04-10T01:32:10;93747.34;;;7.63;66.13
33151;BME280;19508;42.578;23.416;2023-04-10T01:34:51;93750.78;;;7.76;65.97
33151;BME280;19508;42.578;23.416;2023-04-10T01:37:28;93739.59;;;7.79;65.25
33151;BME280;19508;42.578;23.416;2023-04-10T01:39:59;93746.09;;;7.83;65.12
33151;BME280;19508;42.578;23.416;2023-04-10T01:42:27;93747.78;;;7.60;65.78
33151;BME280;19508;42.578;23.416;2023-04-10T01:44:55;93743.28;;;7.61;65.77
33151;BME280;19508;42.578;23.416;2023-04-10T01:47:23;93744.97;;;7.79;64.72
33151;BME280;19508;42.578;23.416;2023-04-10T01:49:50;93745.88;;;7.84;65.13
33151;BME280;19508;42.578;23.416;2023-04-10T01:52:16;93739.59;;;7.79;65.85
33151;BME280;19508;42.578;23.416;2023-04-10T01:54:42;93740.41;;;7.79;66.17
33151;BME280;19508;42.578;23.416;2023-04-10T01:57:10;93748.69;;;7.78;66.62
33151;BME280;19508;42.578;23.416;2023-04-10T01:59:38;93744.84;;;7.74;66.59
33151;BME280;19508;42.578;23.416;2023-04-10T02:02:03;93733.31;;;7.73;66.30
33151;BME280;19508;42.578;23.416;2023-04-10T02:04:32;93744.47;;;7.82;66.25
33151;BME280;19508;42.578;23.416;2023-04-10T02:07:22;93739.00;;;7.88;66.23
33151;BME280;19508;42.578;23.416;2023-04-10T02:12:54;93738.66;;;7.45;67.88
33151;BME280;19508;42.578;23.416;2023-04-10T02:15:25;93732.16;;;7.29;68.52
33151;BME280;19508;42.578;23.416;2023-04-10T02:17:52;93739.00;;;7.25;68.88
33151;BME280;19508;42.578;23.416;2023-04-10T02:20:19;93737.63;;;7.11;69.30
33151;BME280;19508;42.578;23.416;2023-04-10T02:22:46;93730.66;;;7.10;69.74
33151;BME280;19508;42.578;23.416;2023-04-10T02:25:13;93741.34;;;7.21;69.26
33151;BME280;19508;42.578;23.416;2023-04-10T02:27:39;93736.94;;;7.27;68.86
33151;BME280;19508;42.578;23.416;2023-04-10T02:30:05;93727.59;;;7.18;69.12
33151;BME280;19508;42.578;23.416;2023-04-10T02:32:32;93724.09;;;7.29;68.99
33151;BME280;19508;42.578;23.416;2023-04-10T02:34:58;93716.88;;;7.29;68.56
33151;BME280;19508;42.578;23.416;2023-04-10T02:37:24;93720.72;;;7.33;68.70
33151;BME280;19508;42.578;23.416;2023-04-10T02:39:50;93710.00;;;7.45;67.92
33151;BME280;19508;42.578;23.416;2023-04-10T02:42:15;93705.31;;;7.52;68.07
33151;BME280;19508;42.578;23.416;2023-04-10T02:44:41;93710.00;;;7.45;67.42
33151;BME280;19508;42.578;23.416;2023-04-10T02:47:06;93702.16;;;7.55;67.78
33151;BME280;19508;42.578;23.416;2023-04-10T02:49:32;93701.78;;;7.63;67.52
33151;BME280;19508;42.578;23.416;2023-04-10T02:51:59;93703.78;;;7.56;68.13
33151;BME280;19508;42.578;23.416;2023-04-10T02:54:24;93698.53;;;7.50;67.95
33151;BME280;19508;42.578;23.416;2023-04-10T02:56:50;93696.78;;;7.55;67.70
33151;BME280;19508;42.578;23.416;2023-04-10T02:59:15;93689.81;;;7.43;68.98
33151;BME280;19508;42.578;23.416;2023-04-10T03:01:41;93693.75;;;7.52;68.14
33151;BME280;19508;42.578;23.416;2023-04-10T03:04:07;93693.88;;;7.57;68.37
33151;BME280;19508;42.578;23.416;2023-04-10T03:06:32;93690.13;;;7.58;68.30
33151;BME280;19508;42.578;23.416;2023-04-10T03:08:58;93700.72;;;7.64;67.83
33151;BME280;19508;42.578;23.416;2023-04-10T03:11:23;93700.16;;;7.62;68.10
33151;BME280;19508;42.578;23.416;2023-04-10T03:13:49;93699.56;;;7.60;68.34
33151;BME280;19508;42.578;23.416;2023-04-10T03:16:14;93706.50;;;7.45;67.70
33151;BME280;19508;42.578;23.416;2023-04-10T03:18:41;93707.06;;;7.47;67.57
33151;BME280;19508;42.578;23.416;2023-04-10T03:21:07;93703.22;;;7.54;67.70
33151;BME280;19508;42.578;23.416;2023-04-10T03:23:32;93704.91;;;7.60;67.52
33151;BME280;19508;42.578;23.416;2023-04-10T03:25:58;93692.13;;;7.51;67.36
33151;BME280;19508;42.578;23.416;2023-04-10T03:28:23;93707.91;;;7.24;68.48
33151;BME280;19508;42.578;23.416;2023-04-10T03:30:49;93702.34;;;7.14;68.56
33151;BME280;19508;42.578;23.416;2023-04-10T03:33:15;93705.16;;;7.07;68.82
33151;BME280;19508;42.578;23.416;2023-04-10T03:35:41;93696.66;;;6.98;69.74
33151;BME280;19508;42.578;23.416;2023-04-10T03:38:07;93705.03;;;6.90;70.11
33151;BME280;19508;42.578;23.416;2023-04-10T03:40:33;93706.34;;;6.76;70.40
33151;BME280;19508;42.578;23.416;2023-04-10T03:42:59;93699.69;;;6.43;70.91
33151;BME280;19508;42.578;23.416;2023-04-10T03:45:24;93714.44;;;6.34;71.45
33151;BME280;19508;42.578;23.416;2023-04-10T03:47:51;93710.47;;;6.25;72.07
33151;BME280;19508;42.578;23.416;2023-04-10T03:50:16;93711.25;;;6.14;72.12
33151;BME280;19508;42.578;23.416;2023-04-10T03:52:42;93713.88;;;5.90;73.05
33151;BME280;19508;42.578;23.416;2023-04-10T03:55:07;93713.03;;;5.72;73.59
33151;BME280;19508;42.578;23.416;2023-04-10T03:57:33;93719.19;;;5.72;73.01
33151;BME280;19508;42.578;23.416;2023-04-10T03:59:58;93714.38;;;5.62;73.09
33151;BME280;19508;42.578;23.416;2023-04-10T04:02:23;93715.09;;;5.58;73.23
33151;BME280;19508;42.578;23.416;2023-04-10T04:04:49;93713.97;;;5.65;72.99
33151;BME280;19508;42.578;23.416;2023-04-10T04:07:14;93719.19;;;5.72;72.64
33151;BME280;19508;42.578;23.416;2023-04-10T04:09:41;93725.28;;;5.79;72.33
33151;BME280;19508;42.578;23.416;2023-04-10T04:12:07;93719.84;;;5.86;72.17
33151;BME280;19508;42.578;23.416;2023-04-10T04:14:32;93727.50;;;5.82;72.84
33151;BME280;19508;42.578;23.416;2023-04-10T04:16:58;93723.56;;;5.85;71.75
33151;BME280;19508;42.578;23.416;2023-04-10T04:19:23;93717.06;;;6.11;71.14
33151;BME280;19508;42.578;23.416;2023-04-10T04:21:49;93724.03;;;6.12;70.85
33151;BME280;19508;42.578;23.416;2023-04-10T04:24:15;93728.25;;;6.31;70.94
33151;BME280;19508;42.578;23.416;2023-04-10T04:26:40;93729.34;;;6.54;70.38
33151;BME280;19508;42.578;23.416;2023-04-10T04:29:06;93736.94;;;6.68;69.26
33151;BME280;19508;42.578;23.416;2023-04-10T04:31:31;93732.16;;;6.82;68.87
33151;BME280;19508;42.578;23.416;2023-04-10T04:33:58;93739.75;;;6.85;69.10
33151;BME280;19508;42.578;23.416;2023-04-10T04:36:23;93727.25;;;6.91;69.00
33151;BME280;19508;42.578;23.416;2023-04-10T04:38:49;93732.03;;;7.00;67.83
33151;BME280;19508;42.578;23.416;2023-04-10T04:41:14;93734.34;;;7.08;67.39
33151;BME280;19508;42.578;23.416;2023-04-10T04:43:40;93739.13;;;6.83;68.37
33151;BME280;19508;42.578;23.416;2023-04-10T04:46:05;93737.03;;;6.73;69.46
33151;BME280;19508;42.578;23.416;2023-04-10T04:48:31;93740.41;;;6.81;70.04
33151;BME280;19508;42.578;23.416;2023-04-10T04:50:56;93740.88;;;6.89;69.93
33151;BME280;19508;42.578;23.416;2023-04-10T04:53:22;93741.56;;;7.31;68.15
33151;BME280;19508;42.578;23.416;2023-04-10T04:55:47;93735.75;;;7.23;67.59
33151;BME280;19508;42.578;23.416;2023-04-10T04:58:12;93744.00;;;7.33;67.33
33151;BME280;19508;42.578;23.416;2023-04-10T05:00:38;93737.94;;;7.89;66.71
33151;BME280;19508;42.578;23.416;2023-04-10T05:03:04;93735.66;;;8.27;65.56
33151;BME280;19508;42.578;23.416;2023-04-10T05:05:31;93742.41;;;8.41;64.39
33151;BME280;19508;42.578;23.416;2023-04-10T05:07:56;93740.38;;;8.65;64.25
33151;BME280;19508;42.578;23.416;2023-04-10T05:10:21;93741.63;;;8.91;63.07
33151;BME280;19508;42.578;23.416;2023-04-10T05:12:47;93741.63;;;8.91;63.08
33151;BME280;19508;42.578;23.416;2023-04-10T05:15:12;93740.78;;;9.07;62.74
33151;BME280;19508;42.578;23.416;2023-04-10T05:17:37;93742.06;;;9.21;62.03
33151;BME280;19508;42.578;23.416;2023-04-10T05:20:03;93742.22;;;9.31;60.60
33151;BME280;19508;42.578;23.416;2023-04-10T05:22:29;93744.81;;;9.26;62.16
33151;BME280;19508;42.578;23.416;2023-04-10T05:24:55;93738.25;;;9.17;61.87
33151;BME280;19508;42.578;23.416;2023-04-10T05:27:20;93740.97;;;8.84;62.16
33151;BME280;19508;42.578;23.416;2023-04-10T05:29:46;93741.66;;;8.62;63.09
33151;BME280;19508;42.578;23.416;2023-04-10T05:32:12;93737.88;;;8.92;61.84
33151;BME280;19508;42.578;23.416;2023-04-10T05:34:38;93733.44;;;9.19;61.89
33151;BME280;19508;42.578;23.416;2023-04-10T05:37:03;93739.09;;;9.40;62.18
33151;BME280;19508;42.578;23.416;2023-04-10T05:39:29;93747.91;;;9.57;61.70
33151;BME280;19508;42.578;23.416;2023-04-10T05:41:54;93744.53;;;9.45;60.81
33151;BME280;19508;42.578;23.416;2023-04-10T05:44:20;93741.06;;;9.66;60.08
33151;BME280;19508;42.578;23.416;2023-04-10T05:46:46;93741.31;;;9.86;59.85
33151;BME280;19508;42.578;23.416;2023-04-10T05:49:11;93740.00;;;10.11;58.72
33151;BME280;19508;42.578;23.416;2023-04-10T05:51:37;93747.25;;;10.10;59.16
33151;BME280;19508;42.578;23.416;2023-04-10T05:54:02;93749.81;;;9.78;61.05
33151;BME280;19508;42.578;23.416;2023-04-10T05:56:27;93753.88;;;10.03;59.69
33151;BME280;19508;42.578;23.416;2023-04-10T05:58:53;93752.06;;;10.08;59.93
33151;BME280;19508;42.578;23.416;2023-04-10T06:01:18;93742.09;;;10.31;58.89
33151;BME280;19508;42.578;23.416;2023-04-10T06:03:44;93749.59;;;10.07;60.21
33151;BME280;19508;42.578;23.416;2023-04-10T06:06:09;93754.13;;;10.23;59.64
33151;BME280;19508;42.578;23.416;2023-04-10T06:08:35;93750.31;;;10.19;59.16
33151;BME280;19508;42.578;23.416;2023-04-10T06:11:00;93749.97;;;10.37;59.19
33151;BME280;19508;42.578;23.416;2023-04-10T06:13:26;93755.81;;;10.56;58.03
33151;BME280;19508;42.578;23.416;2023-04-10T06:15:51;93752.19;;;10.72;58.27
33151;BME280;19508;42.578;23.416;2023-04-10T06:18:17;93754.81;;;10.94;57.60
33151;BME280;19508;42.578;23.416;2023-04-10T06:20:43;93746.47;;;10.96;57.98
33151;BME280;19508;42.578;23.416;2023-04-10T06:23:08;93749.72;;;10.98;56.75
33151;BME280;19508;42.578;23.416;2023-04-10T06:25:33;93756.53;;;11.06;56.46
33151;BME280;19508;42.578;23.416;2023-04-10T06:28:02;93748.47;;;11.11;56.27
33151;BME280;19508;42.578;23.416;2023-04-10T06:30:27;93756.00;;;11.09;56.52
33151;BME280;19508;42.578;23.416;2023-04-10T06:32:54;93751.22;;;11.16;56.92
33151;BME280;19508;42.578;23.416;2023-04-10T06:35:20;93750.59;;;11.09;57.04
33151;BME280;19508;42.578;23.416;2023-04-10T06:37:46;93736.69;;;10.53;56.85
33151;BME280;19508;42.578;23.416;2023-04-10T06:40:13;93746.19;;;10.60;56.97
33151;BME280;19508;42.578;23.416;2023-04-10T06:42:38;93753.63;;;10.80;57.38
33151;BME280;19508;42.578;23.416;2023-04-10T06:45:05;93745.34;;;10.92;56.63
33151;BME280;19508;42.578;23.416;2023-04-10T06:47:31;93749.66;;;10.93;56.57
33151;BME280;19508;42.578;23.416;2023-04-10T06:49:56;93747.34;;;10.42;57.13
33151;BME280;19508;42.578;23.416;2023-04-10T06:52:22;93753.84;;;10.47;58.19
33151;BME280;19508;42.578;23.416;2023-04-10T06:54:47;93752.28;;;10.83;57.68
33151;BME280;19508;42.578;23.416;2023-04-10T06:57:13;93761.22;;;10.88;56.41
33151;BME280;19508;42.578;23.416;2023-04-10T06:59:38;93755.94;;;10.98;55.85
33151;BME280;19508;42.578;23.416;2023-04-10T07:02:04;93760.28;;;11.05;56.60
33151;BME280;19508;42.578;23.416;2023-04-10T07:04:30;93759.28;;;11.16;56.64
33151;BME280;19508;42.578;23.416;2023-04-10T07:06:56;93765.28;;;10.91;57.16
33151;BME280;19508;42.578;23.416;2023-04-10T07:09:22;93766.16;;;10.96;57.25
33151;BME280;19508;42.578;23.416;2023-04-10T07:11:47;93761.19;;;10.83;56.82
33151;BME280;19508;42.578;23.416;2023-04-10T07:14:13;93758.81;;;10.87;55.80
33151;BME280;19508;42.578;23.416;2023-04-10T07:16:38;93767.78;;;10.97;55.78
33151;BME280;19508;42.578;23.416;2023-04-10T07:19:04;93766.91;;;11.24;56.46
33151;BME280;19508;42.578;23.416;2023-04-10T07:21:30;93755.44;;;11.44;54.48
33151;BME280;19508;42.578;23.416;2023-04-10T07:23:55;93756.22;;;11.39;54.22
33151;BME280;19508;42.578;23.416;2023-04-10T07:26:20;93762.22;;;10.77;54.70
33151;BME280;19508;42.578;23.416;2023-04-10T07:28:46;93763.59;;;11.17;54.05
33151;BME280;19508;42.578;23.416;2023-04-10T07:31:11;93758.75;;;11.14;54.68
33151;BME280;19508;42.578;23.416;2023-04-10T07:33:38;93764.63;;;11.11;54.68
33151;BME280;19508;42.578;23.416;2023-04-10T07:36:04;93764.00;;;11.36;54.71
33151;BME280;19508;42.578;23.416;2023-04-10T07:38:33;93766.34;;;11.22;56.02
33151;BME280;19508;42.578;23.416;2023-04-10T07:40:58;93762.50;;;10.81;57.12
33151;BME280;19508;42.578;23.416;2023-04-10T07:43:24;93754.38;;;11.08;55.00
33151;BME280;19508;42.578;23.416;2023-04-10T07:45:50;93764.34;;;10.75;56.94
33151;BME280;19508;42.578;23.416;2023-04-10T07:48:16;93770.88;;;10.84;55.60
33151;BME280;19508;42.578;23.416;2023-04-10T07:50:41;93763.94;;;10.93;55.73
33151;BME280;19508;42.578;23.416;2023-04-10T07:53:07;93772.22;;;10.82;56.44
33151;BME280;19508;42.578;23.416;2023-04-10T07:58:03;93772.72;;;11.48;55.40
33151;BME280;19508;42.578;23.416;2023-04-10T08:00:30;93768.41;;;11.89;53.14
33151;BME280;19508;42.578;23.416;2023-04-10T08:02:55;93765.69;;;11.84;53.70
33151;BME280;19508;42.578;23.416;2023-04-10T08:05:20;93759.75;;;11.08;55.20
33151;BME280;19508;42.578;23.416;2023-04-10T08:07:46;93754.56;;;11.33;54.26
33151;BME280;19508;42.578;23.416;2023-04-10T08:10:11;93769.59;;;11.24;53.32
33151;BME280;19508;42.578;23.416;2023-04-10T08:12:37;93767.72;;;11.24;54.01
33151;BME280;19508;42.578;23.416;2023-04-10T08:15:02;93770.19;;;11.31;53.60
33151;BME280;19508;42.578;23.416;2023-04-10T08:17:28;93763.19;;;11.30;53.35
33151;BME280;19508;42.578;23.416;2023-04-10T08:19:53;93773.38;;;11.23;54.01
33151;BME280;19508;42.578;23.416;2023-04-10T08:22:18;93772.47;;;11.49;53.68
33151;BME280;19508;42.578;23.416;2023-04-10T08:24:44;93763.50;;;11.39;53.62
33151;BME280;19508;42.578;23.416;2023-04-10T08:27:09;93768.81;;;11.71;52.39
33151;BME280;19508;42.578;23.416;2023-04-10T08:29:35;93770.41;;;11.67;51.65
33151;BME280;19508;42.578;23.416;2023-04-10T08:32:00;93772.72;;;11.90;52.84
33151;BME280;19508;42.578;23.416;2023-04-10T08:34:26;93767.22;;;10.95;53.57
33151;BME280;19508;42.578;23.416;2023-04-10T08:36:53;93778.97;;;10.57;55.88
33151;BME280;19508;42.578;23.416;2023-04-10T08:39:18;93767.72;;;10.92;55.01
33151;BME280;19508;42.578;23.416;2023-04-10T08:41:43;93767.59;;;11.09;55.24
33151;BME280;19508;42.578;23.416;2023-04-10T08:44:10;93770.72;;;11.28;54.91
33151;BME280;19508;42.578;23.416;2023-04-10T08:46:41;93766.03;;;11.55;54.43
33151;BME280;19508;42.578;23.416;2023-04-10T08:49:09;93777.75;;;11.76;54.10
33151;BME280;19508;42.578;23.416;2023-04-10T08:51:41;93769.09;;;10.95;55.80
33151;BME280;19508;42.578;23.416;2023-04-10T08:54:18;93764.25;;;11.29;55.47
33151;BME280;19508;42.578;23.416;2023-04-10T08:56:49;93767.59;;;11.46;54.92
33151;BME280;19508;42.578;23.416;2023-04-10T08:59:16;93755.31;;;11.66;54.15
33151;BME280;19508;42.578;23.416;2023-04-10T09:01:41;93768.75;;;11.61;56.01
33151;BME280;19508;42.578;23.416;2023-04-10T09:04:10;93772.16;;;11.83;53.67
33151;BME280;19508;42.578;23.416;2023-04-10T09:06:35;93744.97;;;11.52;54.65
33151;BME280;19508;42.578;23.416;2023-04-10T09:09:01;93757.16;;;12.07;53.44
33151;BME280;19508;42.578;23.416;2023-04-10T09:11:55;93752.66;;;12.33;52.95
33151;BME280;19508;42.578;23.416;2023-04-10T09:14:28;93753.91;;;12.05;52.65
33151;BME280;19508;42.578;23.416;2023-04-10T09:17:09;93741.53;;;12.20;52.02
33151;BME280;19508;42.578;23.416;2023-04-10T09:19:35;93744.94;;;11.95;51.33
33151;BME280;19508;42.578;23.416;2023-04-10T09:22:01;93746.44;;;12.33;51.73
33151;BME280;19508;42.578;23.416;2023-04-10T09:24:26;93745.69;;;12.48;51.57
33151;BME280;19508;42.578;23.416;2023-04-10T09:26:52;93755.31;;;12.23;53.37
33151;BME280;19508;42.578;23.416;2023-04-10T09:29:18;93754.69;;;12.01;52.43
33151;BME280;19508;42.578;23.416;2023-04-10T09:31:44;93745.31;;;12.19;51.94
33151;BME280;19508;42.578;23.416;2023-04-10T09:34:13;93736.66;;;12.22;50.31
33151;BME280;19508;42.578;23.416;2023-04-10T09:36:40;93741.34;;;12.41;52.71
33151;BME280;19508;42.578;23.416;2023-04-10T09:39:07;93736.78;;;11.79;51.22
33151;BME280;19508;42.578;23.416;2023-04-10T09:41:33;93729.06;;;12.03;50.70
33151;BME280;19508;42.578;23.416;2023-04-10T09:44:09;93730.31;;;12.79;50.90
33151;BME280;19508;42.578;23.416;2023-04-10T09:46:36;93730.34;;;12.94;49.24
33151;BME280;19508;42.578;23.416;2023-04-10T09:49:01;93729.78;;;13.12;48.51
33151;BME280;19508;42.578;23.416;2023-04-10T09:51:33;93727.59;;;13.60;47.63
33151;BME280;19508;42.578;23.416;2023-04-10T09:54:00;93726.00;;;13.08;47.76
33151;BME280;19508;42.578;23.416;2023-04-10T09:56:27;93722.16;;;13.70;47.41
33151;BME280;19508;42.578;23.416;2023-04-10T09:58:57;93709.59;;;14.05;45.55
33151;BME280;19508;42.578;23.416;2023-04-10T10:01:26;93715.91;;;13.85;45.43
33151;BME280;19508;42.578;23.416;2023-04-10T10:03:53;93712.13;;;13.76;46.06
33151;BME280;19508;42.578;23.416;2023-04-10T10:06:19;93709.81;;;14.08;46.54
33151;BME280;19508;42.578;23.416;2023-04-10T10:08:46;93704.59;;;13.68;47.41
33151;BME280;19508;42.578;23.416;2023-04-10T10:11:16;93704.38;;;13.08;46.19
33151;BME280;19508;42.578;23.416;2023-04-10T10:13:49;93701.66;;;13.13;47.87
33151;BME280;19508;42.578;23.416;2023-04-10T10:16:21;93697.69;;;14.01;45.95
33151;BME280;19508;42.578;23.416;2023-04-10T10:21:15;93696.25;;;14.68;44.25
33151;BME280;19508;42.578;23.416;2023-04-10T10:23:41;93694.19;;;14.55;45.06
33151;BME280;19508;42.578;23.416;2023-04-10T10:26:09;93688.09;;;14.73;42.92
33151;BME280;19508;42.578;23.416;2023-04-10T10:28:35;93688.28;;;15.16;43.80
33151;BME280;19508;42.578;23.416;2023-04-10T10:31:04;93689.59;;;14.89;44.58
33151;BME280;19508;42.578;23.416;2023-04-10T10:33:32;93679.41;;;14.27;45.33
33151;BME280;19508;42.578;23.416;2023-04-10T10:36:00;93667.81;;;15.00;43.16
33151;BME280;19508;42.578;23.416;2023-04-10T10:38:26;93669.38;;;15.40;41.38
33151;BME280;19508;42.578;23.416;2023-04-10T10:41:15;93654.13;;;16.91;38.80
33151;BME280;19508;42.578;23.416;2023-04-10T10:43:58;93648.19;;;16.51;38.76
33151;BME280;19508;42.578;23.416;2023-04-10T10:46:45;93646.69;;;17.75;38.00
33151;BME280;19508;42.578;23.416;2023-04-10T10:49:13;93649.84;;;17.36;37.76
33151;BME280;19508;42.578;23.416;2023-04-10T10:51:47;93651.94;;;17.72;37.21
33151;BME280;19508;42.578;23.416;2023-04-10T10:56:55;93646.63;;;17.48;37.54
33151;BME280;19508;42.578;23.416;2023-04-10T11:00:00;93644.72;;;17.02;37.29
33151;BME280;19508;42.578;23.416;2023-04-10T11:02:25;93635.94;;;17.52;37.44
33151;BME280;19508;42.578;23.416;2023-04-10T11:04:51;93644.28;;;16.20;38.31
33151;BME280;19508;42.578;23.416;2023-04-10T11:07:16;93638.31;;;14.93;41.08
33151;BME280;19508;42.578;23.416;2023-04-10T11:09:44;93636.19;;;14.90;41.32
33151;BME280;19508;42.578;23.416;2023-04-10T11:12:21;93625.59;;;15.94;40.53
33151;BME280;19508;42.578;23.416;2023-04-10T11:15:00;93621.09;;;15.13;40.41
33151;BME280;19508;42.578;23.416;2023-04-10T11:17:49;93630.03;;;15.37;39.96
33151;BME280;19508;42.578;23.416;2023-04-10T11:20:16;93617.63;;;15.55;39.25
33151;BME280;19508;42.578;23.416;2023-04-10T11:23:08;93617.31;;;15.62;39.26
33151;BME280;19508;42.578;23.416;2023-04-10T11:25:51;93611.03;;;15.13;39.69
33151;BME280;19508;42.578;23.416;2023-04-10T11:28:36;93618.63;;;14.53;39.89
33151;BME280;19508;42.578;23.416;2023-04-10T11:31:21;93613.47;;;15.15;42.51
33151;BME280;19508;42.578;23.416;2023-04-10T11:34:04;93604.06;;;15.79;39.51
33151;BME280;19508;42.578;23.416;2023-04-10T11:36:31;93606.34;;;17.17;38.60
33151;BME280;19508;42.578;23.416;2023-04-10T11:39:05;93601.13;;;16.37;38.46
33151;BME280;19508;42.578;23.416;2023-04-10T11:41:44;93600.28;;;16.55;37.89
33151;BME280;19508;42.578;23.416;2023-04-10T11:44:29;93599.63;;;15.88;38.53
33151;BME280;19508;42.578;23.416;2023-04-10T11:46:55;93602.22;;;16.17;37.85
33151;BME280;19508;42.578;23.416;2023-04-10T11:49:40;93617.97;;;15.24;40.10
33151;BME280;19508;42.578;23.416;2023-04-10T11:52:08;93606.69;;;14.83;40.98
33151;BME280;19508;42.578;23.416;2023-04-10T11:54:34;93618.28;;;14.60;41.36
33151;BME280;19508;42.578;23.416;2023-04-10T11:57:06;93607.31;;;13.92;43.51
33151;BME280;19508;42.578;23.416;2023-04-10T11:59:37;93614.63;;;13.16;45.75
33151;BME280;19508;42.578;23.416;2023-04-10T12:02:10;93605.88;;;13.50;46.26
33151;BME280;19508;42.578;23.416;2023-04-10T12:04:39;93597.00;;;13.44;46.14
33151;BME280;19508;42.578;23.416;2023-04-10T12:07:05;93607.63;;;13.20;46.51
33151;BME280;19508;42.578;23.416;2023-04-10T12:09:31;93600.94;;;13.72;45.33
33151;BME280;19508;42.578;23.416;2023-04-10T12:11:58;93591.66;;;13.83;43.90
33151;BME280;19508;42.578;23.416;2023-04-10T12:14:39;93592.75;;;13.82;45.43
33151;BME280;19508;42.578;23.416;2023-04-10T12:17:06;93597.66;;;13.75;44.74
33151;BME280;19508;42.578;23.416;2023-04-10T12:19:33;93598.38;;;13.96;47.06
33151;BME280;19508;42.578;23.416;2023-04-10T12:21:59;93600.34;;;13.80;45.64
33151;BME280;19508;42.578;23.416;2023-04-10T12:24:42;93627.66;;;12.99;49.46
33151;BME280;19508;42.578;23.416;2023-04-10T12:27:24;93622.50;;;12.92;50.03
33151;BME280;19508;42.578;23.416;2023-04-10T12:29:57;93615.19;;;13.03;51.20
33151;BME280;19508;42.578;23.416;2023-04-10T12:32:23;93604.44;;;12.67;54.22
33151;BME280;19508;42.578;23.416;2023-04-10T12:34:57;93614.41;;;12.47;53.46
33151;BME280;19508;42.578;23.416;2023-04-10T12:37:23;93610.31;;;12.03;55.95
33151;BME280;19508;42.578;23.416;2023-04-10T12:39:49;93602.81;;;12.26;56.53
33151;BME280;19508;42.578;23.416;2023-04-10T12:42:20;93606.25;;;13.28;53.93
33151;BME280;19508;42.578;23.416;2023-04-10T12:44:55;93604.94;;;12.95;54.36
33151;BME280;19508;42.578;23.416;2023-04-10T12:47:25;93606.13;;;13.59;52.62
33151;BME280;19508;42.578;23.416;2023-04-10T12:50:07;93608.25;;;14.21;52.25
33151;BME280;19508;42.578;23.416;2023-04-10T12:52:34;93602.81;;;14.60;50.32
33151;BME280;19508;42.578;23.416;2023-04-10T12:55:17;93597.75;;;15.12;46.87
33151;BME280;19508;42.578;23.416;2023-04-10T12:57:47;93596.50;;;15.04;45.92
33151;BME280;19508;42.578;23.416;2023-04-10T13:00:15;93595.66;;;15.04;44.60
33151;BME280;19508;42.578;23.416;2023-04-10T13:02:41;93578.09;;;13.94;46.07
33151;BME280;19508;42.578;23.416;2023-04-10T13:05:07;93589.13;;;14.42;44.50
33151;BME280;19508;42.578;23.416;2023-04-10T13:07:34;93593.97;;;14.50;44.26
33151;BME280;19508;42.578;23.416;2023-04-10T13:10:00;93590.16;;;13.57;45.93
33151;BME280;19508;42.578;23.416;2023-04-10T13:12:26;93582.59;;;13.59;46.95
33151;BME280;19508;42.578;23.416;2023-04-10T13:14:53;93595.28;;;12.48;48.83
33151;BME280;19508;42.578;23.416;2023-04-10T13:17:19;93583.88;;;12.82;48.71